createdAt,value
2019-04-26T00:02:19.602Z,79.70
2019-04-26T00:04:49.957Z,79.60
2019-04-26T00:07:20.698Z,80.80
2019-04-26T00:09:51.185Z,80.40
2019-04-26T00:12:25.816Z,80.40
2019-04-26T00:14:57.878Z,79.80
2019-04-26T00:17:35.673Z,80.20
2019-04-26T00:20:07.249Z,80.20
2019-04-26T00:22:37.041Z,79.50
2019-04-26T00:25:07.146Z,79.80
2019-04-26T00:27:37.085Z,79.80
2019-04-26T00:30:06.862Z,80.10
2019-04-26T00:32:37.034Z,79.60
2019-04-26T00:35:07.335Z,79.90
2019-04-26T00:37:38.267Z,80.40
2019-04-26T00:40:11.847Z,80.80
2019-04-26T00:42:42.382Z,80.40
2019-04-26T00:45:12.508Z,80.30
2019-04-26T00:47:43.874Z,80.80
2019-04-26T00:50:13.993Z,80.30
2019-04-26T00:52:44.973Z,80.10
2019-04-26T00:55:15.612Z,80.60
2019-04-26T00:57:45.778Z,81.10
2019-04-26T01:00:18.166Z,81.60
2019-04-26T01:02:49.811Z,81.80
2019-04-26T01:05:20.842Z,81.30
2019-04-26T01:07:53.404Z,81.50
2019-04-26T01:10:23.719Z,81.90
2019-04-26T01:12:53.822Z,81.60
2019-04-26T01:15:24.725Z,81.50
2019-04-26T01:17:55.067Z,81.00
2019-04-26T01:20:24.950Z,80.80
2019-04-26T01:22:54.867Z,81.00
2019-04-26T01:25:31.131Z,81.90
2019-04-26T01:28:01.433Z,82.10
2019-04-26T01:30:31.280Z,82.50
2019-04-26T01:33:01.814Z,82.00
2019-04-26T01:35:31.712Z,81.00
2019-04-26T01:38:01.837Z,81.00
2019-04-26T01:40:33.384Z,80.40
2019-04-26T01:43:10.657Z,80.80
2019-04-26T01:45:45.249Z,80.90
2019-04-26T01:48:36.398Z,80.60
2019-04-26T01:51:06.426Z,80.80
2019-04-26T01:53:36.302Z,81.10
2019-04-26T01:56:06.354Z,80.80
2019-04-26T01:58:36.334Z,80.80
2019-04-26T02:01:07.778Z,80.60
2019-04-26T02:03:37.842Z,80.40
2019-04-26T02:06:07.684Z,80.70
2019-04-26T02:08:37.566Z,80.80
2019-04-26T02:11:07.455Z,81.20
2019-04-26T02:13:37.260Z,81.10
2019-04-26T02:16:07.442Z,80.70
2019-04-26T02:18:37.325Z,80.40
2019-04-26T02:21:09.114Z,79.90
2019-04-26T02:26:40.266Z,79.20
2019-04-26T02:29:12.967Z,79.40
2019-04-26T02:31:43.219Z,79.90
2019-04-26T02:34:13.488Z,79.40
2019-04-26T02:36:57.310Z,80.00
2019-04-26T02:39:19.781Z,80.50
2019-04-26T02:41:51.729Z,80.20
2019-04-26T02:44:26.624Z,79.40
2019-04-26T02:47:24.159Z,80.10
2019-04-26T02:49:57.578Z,79.40
2019-04-26T02:52:39.686Z,80.00
2019-04-26T02:55:15.645Z,80.20
2019-04-26T02:57:48.738Z,80.70
2019-04-26T03:00:19.905Z,79.80
2019-04-26T03:02:53.010Z,79.30
2019-04-26T03:05:22.825Z,79.80
2019-04-26T03:07:55.076Z,80.30
2019-04-26T03:10:28.498Z,80.50
2019-04-26T03:13:00.353Z,80.70
2019-04-26T03:15:37.217Z,80.90
2019-04-26T03:18:13.575Z,80.70
2019-04-26T03:20:45.463Z,80.20
2019-04-26T03:23:21.979Z,80.10
2019-04-26T03:25:57.974Z,80.60
2019-04-26T03:28:43.658Z,81.40
2019-04-26T03:31:42.725Z,81.80
2019-04-26T03:34:27.528Z,82.30
2019-04-26T03:37:33.794Z,82.40
2019-04-26T03:40:16.318Z,82.40
2019-04-26T03:42:56.337Z,81.80
2019-04-26T03:45:42.514Z,81.60
2019-04-26T03:48:41.700Z,82.10
2019-04-26T03:51:35.665Z,82.80
2019-04-26T03:54:11.854Z,82.80
2019-04-26T03:56:46.566Z,82.10
2019-04-26T03:59:47.937Z,82.50
2019-04-26T04:02:25.591Z,82.30
2019-04-26T04:04:59.871Z,82.80
2019-04-26T04:07:39.594Z,83.00
2019-04-26T04:10:07.281Z,82.30
2019-04-26T04:12:42.117Z,81.50
2019-04-26T04:15:24.274Z,81.60
2019-04-26T04:18:09.493Z,82.10
2019-04-26T04:21:15.749Z,82.20
2019-04-26T04:23:54.055Z,81.50
2019-04-26T04:26:27.482Z,81.50
2019-04-26T04:29:18.498Z,81.20
2019-04-26T04:31:58.878Z,80.70
2019-04-26T04:34:37.450Z,81.20
2019-04-26T04:37:07.357Z,81.20
2019-04-26T04:39:49.915Z,80.90
2019-04-26T04:42:33.369Z,81.70
2019-04-26T04:45:17.004Z,81.60
2019-04-26T04:48:27.034Z,81.50
2019-04-26T04:51:18.043Z,81.00
2019-04-26T04:53:59.299Z,81.30
2019-04-26T04:56:45.794Z,81.40
2019-04-26T04:59:52.408Z,82.10
2019-04-26T05:02:48.668Z,82.30
2019-04-26T05:05:38.577Z,82.30
2019-04-26T05:08:15.432Z,83.40
2019-04-26T05:11:12.826Z,82.50
2019-04-26T05:13:45.249Z,82.10
2019-04-26T05:16:52.524Z,82.40
2019-04-26T05:19:40.937Z,82.40
2019-04-26T05:22:49.133Z,83.00
2019-04-26T05:25:46.866Z,84.10
2019-04-26T05:28:43.839Z,82.70
2019-04-26T05:31:30.776Z,83.40
2019-04-26T05:34:05.077Z,83.20
2019-04-26T05:36:41.282Z,83.50
2019-04-26T05:39:14.418Z,83.50
2019-04-26T05:42:27.386Z,83.60
2019-04-26T05:45:26.387Z,83.50
2019-04-26T05:48:22.060Z,84.10
2019-04-26T05:51:31.973Z,83.90
2019-04-26T05:54:39.729Z,84.10
2019-04-26T05:57:35.907Z,83.90
2019-04-26T06:00:28.752Z,83.70
2019-04-26T06:03:22.700Z,83.20
2019-04-26T06:05:59.968Z,83.90
2019-04-26T06:08:42.904Z,83.30
2019-04-26T06:11:17.663Z,82.50
2019-04-26T06:14:07.625Z,82.70
2019-04-26T06:16:59.190Z,82.40
2019-04-26T06:19:42.292Z,82.20
2019-04-26T06:22:27.571Z,82.50
2019-04-26T06:25:07.694Z,81.20
2019-04-26T06:28:05.125Z,80.50
2019-04-26T06:30:50.023Z,79.40
2019-04-26T06:33:32.127Z,78.10
2019-04-26T06:36:06.045Z,78.30
2019-04-26T06:39:02.122Z,76.00
2019-04-26T06:42:02.809Z,75.70
2019-04-26T06:44:56.277Z,76.50
2019-04-26T06:47:59.449Z,76.40
2019-04-26T06:50:42.892Z,77.70
2019-04-26T06:53:18.809Z,76.00
2019-04-26T06:56:03.008Z,73.80
2019-04-26T06:59:09.463Z,69.20
2019-04-26T07:01:42.897Z,67.40
2019-04-26T07:04:31.230Z,64.80
2019-04-26T07:07:29.200Z,63.70
2019-04-26T07:10:03.966Z,63.40
2019-04-26T07:12:37.759Z,62.80
2019-04-26T07:15:30.362Z,63.50
2019-04-26T07:18:27.411Z,64.00
2019-04-26T07:21:16.469Z,63.70
2019-04-26T07:24:19.394Z,64.70
2019-04-26T07:27:05.108Z,65.40
2019-04-26T07:30:04.064Z,68.40
2019-04-26T07:33:04.145Z,68.30
2019-04-26T07:35:50.350Z,68.70
2019-04-26T07:38:55.401Z,71.10
2019-04-26T07:42:03.240Z,70.80
2019-04-26T07:44:57.181Z,72.80
2019-04-26T07:47:51.036Z,70.50
2019-04-26T07:50:32.954Z,71.70
2019-04-26T07:53:21.011Z,71.60
2019-04-26T07:56:00.313Z,71.20
2019-04-26T07:58:39.440Z,71.80
2019-04-26T08:01:49.987Z,71.70
2019-04-26T08:04:29.485Z,72.10
2019-04-26T08:07:06.857Z,70.50
2019-04-26T08:09:36.932Z,70.60
2019-04-26T08:12:10.000Z,70.00
2019-04-26T08:15:04.614Z,70.90
2019-04-26T08:17:53.523Z,68.90
2019-04-26T08:20:39.925Z,67.90
2019-04-26T08:23:28.216Z,67.00
2019-04-26T08:25:42.647Z,66.00
2019-04-26T08:28:14.311Z,66.30
2019-04-26T08:30:46.443Z,64.50
2019-04-26T08:33:19.356Z,64.50
2019-04-26T08:35:52.942Z,64.10
2019-04-26T08:38:22.584Z,63.50
2019-04-26T08:40:52.450Z,63.00
2019-04-26T08:43:27.314Z,63.40
2019-04-26T08:46:03.387Z,62.70
2019-04-26T08:48:35.051Z,62.70
2019-04-26T08:51:06.546Z,64.30
2019-04-26T08:53:37.302Z,64.50
2019-04-26T08:56:07.297Z,64.90
2019-04-26T08:58:39.154Z,65.20
2019-04-26T09:01:26.830Z,65.90
2019-04-26T09:03:58.958Z,66.50
2019-04-26T09:06:42.802Z,66.00
2019-04-26T09:09:17.933Z,67.00
2019-04-26T09:11:45.309Z,66.70
2019-04-26T09:14:14.941Z,66.90
2019-04-26T09:16:50.547Z,66.70
2019-04-26T09:19:16.930Z,67.30
2019-04-26T09:21:51.808Z,67.50
2019-04-26T09:24:27.183Z,68.20
2019-04-26T09:26:58.709Z,66.50
2019-04-26T09:29:31.825Z,66.20
2019-04-26T09:32:03.368Z,66.30
2019-04-26T09:34:34.981Z,66.70
2019-04-26T09:37:04.914Z,67.40
2019-04-26T09:39:34.871Z,67.70
2019-04-26T09:42:09.720Z,67.90
2019-04-26T09:44:41.557Z,67.60
2019-04-26T09:47:19.527Z,68.00
2019-04-26T09:50:07.497Z,67.90
2019-04-26T09:52:44.754Z,68.50
2019-04-26T09:55:14.641Z,68.70
2019-04-26T09:57:44.815Z,68.60
2019-04-26T10:00:18.011Z,68.20
2019-04-26T10:02:47.303Z,70.10
2019-04-26T10:05:17.555Z,72.60
2019-04-26T10:07:48.921Z,73.70
2019-04-26T10:10:23.069Z,74.80
2019-04-26T10:12:52.502Z,75.20
2019-04-26T10:15:38.944Z,75.80
2019-04-26T10:18:08.314Z,76.90
2019-04-26T10:20:38.392Z,77.00
2019-04-26T10:23:08.379Z,76.80
2019-04-26T10:25:38.330Z,77.30
2019-04-26T10:28:11.855Z,77.30
2019-04-26T10:30:42.370Z,77.90
2019-04-26T10:33:11.302Z,79.20
2019-04-26T10:35:41.190Z,79.70
2019-04-26T10:38:11.003Z,79.00
2019-04-26T10:40:42.750Z,79.90
2019-04-26T10:43:12.658Z,80.60
2019-04-26T10:45:45.974Z,79.00
2019-04-26T10:48:15.475Z,79.70
2019-04-26T10:50:46.770Z,79.00
2019-04-26T10:53:18.221Z,78.80
2019-04-26T10:55:55.823Z,80.50
2019-04-26T10:58:37.750Z,78.70
2019-04-26T11:01:09.593Z,78.60
2019-04-26T11:03:39.473Z,78.60
2019-04-26T11:06:10.376Z,79.20
2019-04-26T11:08:40.288Z,80.50
2019-04-26T11:11:10.139Z,79.80
2019-04-26T11:13:40.998Z,79.50
2019-04-26T11:16:10.883Z,80.20
2019-04-26T11:18:40.762Z,79.10
2019-04-26T11:21:10.681Z,79.60
2019-04-26T11:23:41.177Z,79.10
2019-04-26T11:26:12.118Z,79.10
2019-04-26T11:28:42.142Z,77.20
2019-04-26T11:31:12.122Z,76.90
2019-04-26T11:33:44.946Z,73.60
2019-04-26T11:36:14.881Z,76.50
2019-04-26T11:38:44.920Z,76.00
2019-04-26T11:41:14.766Z,76.00
2019-04-26T11:43:44.639Z,75.10
2019-04-26T11:46:14.566Z,74.30
2019-04-26T11:48:44.455Z,73.20
2019-04-26T11:51:14.257Z,71.50
2019-04-26T11:53:44.834Z,70.40
2019-04-26T11:56:15.018Z,69.90
2019-04-26T11:58:44.867Z,71.50
2019-04-26T12:01:16.456Z,70.10
2019-04-26T12:03:48.040Z,71.00
2019-04-26T12:06:21.365Z,68.70
2019-04-26T12:08:55.622Z,71.40
2019-04-26T12:11:31.561Z,74.10
2019-04-26T12:13:59.520Z,78.40
2019-04-26T12:16:28.547Z,75.90
2019-04-26T12:18:58.798Z,93.10
2019-04-26T12:21:30.511Z,75.10
2019-04-26T12:24:00.178Z,74.80
2019-04-26T12:26:42.154Z,75.40
2019-04-26T12:29:01.445Z,73.70
2019-04-26T12:31:31.411Z,71.20
2019-04-26T12:34:01.323Z,71.30
2019-04-26T12:36:31.576Z,72.40
2019-04-26T12:39:02.165Z,71.30
2019-04-26T12:41:40.142Z,72.30
2019-04-26T12:44:06.637Z,70.50
2019-04-26T12:46:53.252Z,71.30
2019-04-26T12:49:24.343Z,73.50
2019-04-26T12:51:54.799Z,73.00
2019-04-26T12:54:25.114Z,73.00
2019-04-26T12:56:54.997Z,73.30
2019-04-26T12:59:26.610Z,72.60
2019-04-26T13:02:05.544Z,72.50
2019-04-26T13:04:36.019Z,72.10
2019-04-26T13:07:02.422Z,70.80
2019-04-26T13:09:34.645Z,70.00
2019-04-26T13:12:06.403Z,69.10
2019-04-26T13:14:54.438Z,69.60
2019-04-26T13:17:37.693Z,66.10
2019-04-26T13:20:07.506Z,66.70
2019-04-26T13:22:45.970Z,67.40
2019-04-26T13:25:15.340Z,65.30
2019-04-26T13:27:41.653Z,65.00
2019-04-26T13:30:14.202Z,64.50
2019-04-26T13:32:44.073Z,62.90
2019-04-26T13:35:13.927Z,63.60
2019-04-26T13:37:44.815Z,63.40
2019-04-26T13:40:14.762Z,61.10
2019-04-26T13:42:47.465Z,62.00
2019-04-26T13:45:17.921Z,61.20
2019-04-26T13:47:51.880Z,62.40
2019-04-26T13:50:26.754Z,62.80
2019-04-26T13:52:54.934Z,61.60
2019-04-26T13:55:25.398Z,62.00
2019-04-26T13:57:56.253Z,62.60
2019-04-26T14:00:28.062Z,63.00
2019-04-26T14:02:58.149Z,63.70
2019-04-26T14:05:27.960Z,64.30
2019-04-26T14:07:57.772Z,63.90
2019-04-26T14:10:27.589Z,62.40
2019-04-26T14:12:57.606Z,64.20
2019-04-26T14:15:27.512Z,64.70
2019-04-26T14:18:00.287Z,64.70
2019-04-26T14:20:28.829Z,62.20
2019-04-26T14:23:15.403Z,60.90
2019-04-26T14:25:51.556Z,61.00
2019-04-26T14:28:23.942Z,58.80
2019-04-26T14:30:53.014Z,57.70
2019-04-26T14:33:22.809Z,58.00
2019-04-26T14:35:52.673Z,57.60
2019-04-26T14:38:27.897Z,55.80
2019-04-26T14:41:03.664Z,55.00
2019-04-26T14:43:39.736Z,55.90
2019-04-26T14:45:57.437Z,56.60
2019-04-26T14:48:35.700Z,56.40
2019-04-26T14:51:07.754Z,56.00
2019-04-26T14:53:32.264Z,57.20
2019-04-26T14:56:01.658Z,56.00
2019-04-26T14:58:33.609Z,54.70
2019-04-26T15:01:04.605Z,56.70
2019-04-26T15:03:36.058Z,57.20
2019-04-26T15:06:10.141Z,57.00
2019-04-26T15:08:40.458Z,57.60
2019-04-26T15:11:12.854Z,57.60
2019-04-26T15:13:43.727Z,54.80
2019-04-26T15:16:14.285Z,56.00
2019-04-26T15:18:44.570Z,56.50
2019-04-26T15:21:14.366Z,58.00
2019-04-26T15:23:44.169Z,53.40
2019-04-26T15:26:13.994Z,52.90
2019-04-26T15:28:50.033Z,57.50
2019-04-26T15:31:17.261Z,55.40
2019-04-26T15:33:48.801Z,54.10
2019-04-26T15:36:18.349Z,55.20
2019-04-26T15:38:49.484Z,50.90
2019-04-26T15:41:24.006Z,52.70
2019-04-26T15:43:58.259Z,53.10
2019-04-26T15:46:36.049Z,53.90
2019-04-26T15:49:13.679Z,55.50
2019-04-26T15:51:43.639Z,58.40
2019-04-26T15:54:13.439Z,63.10
2019-04-26T15:56:43.698Z,64.50
2019-04-26T15:59:13.598Z,65.50
2019-04-26T16:01:47.684Z,64.00
2019-04-26T16:04:17.430Z,62.00
2019-04-26T16:06:47.721Z,61.90
2019-04-26T16:09:19.733Z,59.80
2019-04-26T16:11:50.548Z,59.30
2019-04-26T16:14:25.774Z,60.40
2019-04-26T16:16:52.500Z,58.70
2019-04-26T16:19:22.427Z,57.20
2019-04-26T16:21:55.225Z,58.30
2019-04-26T16:24:24.130Z,58.80
2019-04-26T16:26:56.242Z,55.50
2019-04-26T16:29:46.668Z,53.20
2019-04-26T16:32:35.521Z,54.30
2019-04-26T16:35:06.939Z,52.80
2019-04-26T16:37:36.906Z,53.40
2019-04-26T16:40:07.728Z,55.30
2019-04-26T16:42:38.391Z,55.20
2019-04-26T16:45:08.660Z,57.20
2019-04-26T16:50:14.886Z,54.30
2019-04-26T16:52:43.508Z,55.70
2019-04-26T16:55:20.348Z,54.00
2019-04-26T16:57:53.772Z,53.30
2019-04-26T17:00:17.302Z,54.10
2019-04-26T17:02:47.255Z,52.80
2019-04-26T17:05:23.981Z,54.50
2019-04-26T17:08:10.506Z,53.60
2019-04-26T17:09:51.253Z,55.70
2019-04-26T17:10:39.241Z,52.30
2019-04-26T17:13:09.082Z,52.70
2019-04-26T17:15:38.949Z,53.30
2019-04-26T17:18:08.842Z,53.80
2019-04-26T17:20:40.488Z,53.00
2019-04-26T17:23:17.853Z,52.90
2019-04-26T17:26:04.593Z,54.30
2019-04-26T17:28:34.549Z,54.10
2019-04-26T17:31:04.702Z,53.90
2019-04-26T17:33:34.605Z,54.40
2019-04-26T17:36:04.533Z,53.40
2019-04-26T17:38:35.226Z,53.80
2019-04-26T17:41:06.579Z,54.30
2019-04-26T17:43:42.276Z,54.40
2019-04-26T17:46:10.470Z,54.50
2019-04-26T17:48:40.867Z,56.10
2019-04-26T17:51:18.347Z,59.90
2019-04-26T17:53:44.072Z,62.30
2019-04-26T17:56:14.380Z,64.60
2019-04-26T17:58:52.371Z,64.30
2019-04-26T18:01:33.515Z,64.80
2019-04-26T18:03:52.146Z,64.00
2019-04-26T18:06:29.090Z,67.00
2019-04-26T18:08:52.805Z,65.70
2019-04-26T18:11:24.763Z,66.50
2019-04-26T18:13:53.867Z,67.00
2019-04-26T18:16:28.988Z,68.30
2019-04-26T18:19:02.428Z,68.20
2019-04-26T18:21:38.934Z,69.00
2019-04-26T18:24:08.900Z,69.70
2019-04-26T18:26:40.161Z,70.50
2019-04-26T18:29:10.010Z,69.90
2019-04-26T18:31:39.898Z,70.30
2019-04-26T18:34:09.810Z,71.40
2019-04-26T18:36:39.709Z,70.80
2019-04-26T18:39:09.997Z,69.50
2019-04-26T18:41:41.673Z,69.90
2019-04-26T18:44:11.653Z,69.10
2019-04-26T18:46:54.890Z,69.70
2019-04-26T18:49:26.971Z,69.60
2019-04-26T18:51:56.242Z,70.10
2019-04-26T18:54:47.917Z,69.70
2019-04-26T18:57:17.222Z,70.60
2019-04-26T18:59:51.338Z,71.20
2019-04-26T19:02:19.977Z,71.00
2019-04-26T19:04:49.879Z,70.10
2019-04-26T19:07:31.390Z,70.20
2019-04-26T19:10:01.946Z,69.80
2019-04-26T19:12:26.833Z,71.10
2019-04-26T19:15:07.532Z,71.40
2019-04-26T19:17:41.084Z,71.90
2019-04-26T19:20:18.758Z,71.20
2019-04-26T19:22:53.240Z,70.20
2019-04-26T19:25:24.972Z,70.60
2019-04-26T19:27:54.529Z,70.70
2019-04-26T19:30:26.051Z,71.70
2019-04-26T19:32:56.045Z,70.60
2019-04-26T19:35:25.933Z,70.50
2019-04-26T19:37:55.801Z,70.70
2019-04-26T19:40:27.424Z,70.50
2019-04-26T19:42:57.750Z,70.00
2019-04-26T19:45:47.000Z,70.70
2019-04-26T19:48:31.437Z,71.40
2019-04-26T19:51:05.896Z,71.20
2019-04-26T19:53:43.256Z,71.30
2019-04-26T19:56:17.466Z,72.60
2019-04-26T19:58:50.742Z,71.50
2019-04-26T20:01:20.920Z,72.20
2019-04-26T20:03:55.051Z,71.00
2019-04-26T20:06:22.725Z,71.60
2019-04-26T20:08:52.673Z,71.70
2019-04-26T20:11:22.632Z,72.30
2019-04-26T20:13:55.151Z,73.20
2019-04-26T20:16:25.766Z,73.10
2019-04-26T20:18:55.715Z,74.30
2019-04-26T20:21:25.593Z,73.70
2019-04-26T20:23:55.452Z,74.90
2019-04-26T20:26:25.261Z,74.10
2019-04-26T20:28:55.170Z,73.50
2019-04-26T20:31:47.603Z,71.70
2019-04-26T20:34:18.158Z,73.00
2019-04-26T20:36:47.737Z,73.40
2019-04-26T20:39:20.883Z,74.20
2019-04-26T20:42:00.511Z,74.30
2019-04-26T20:44:23.834Z,74.00
2019-04-26T20:46:52.048Z,74.40
2019-04-26T20:49:22.270Z,73.90
2019-04-26T20:51:52.125Z,73.60
2019-04-26T20:54:22.457Z,70.50
2019-04-26T20:56:55.468Z,69.20
2019-04-26T20:59:24.322Z,68.20
2019-04-26T21:02:03.454Z,70.40
2019-04-26T21:04:36.849Z,69.20
2019-04-26T21:07:11.440Z,68.70
2019-04-26T21:09:43.447Z,68.30
2019-04-26T21:12:17.291Z,68.00
2019-04-26T21:14:45.659Z,67.50
2019-04-26T21:17:19.317Z,66.90
2019-04-26T21:19:49.908Z,68.50
2019-04-26T21:22:22.453Z,68.60
2019-04-26T21:24:58.527Z,67.80
2019-04-26T21:27:31.788Z,68.10
2019-04-26T21:30:21.480Z,68.40
2019-04-26T21:33:04.502Z,67.90
2019-04-26T21:35:44.649Z,67.80
2019-04-26T21:38:16.089Z,68.30
2019-04-26T21:40:55.334Z,66.60
2019-04-26T21:43:24.860Z,68.40
2019-04-26T21:46:07.110Z,66.90
2019-04-26T21:48:26.177Z,66.50
2019-04-26T21:50:56.045Z,66.50
2019-04-26T21:53:25.869Z,67.80
2019-04-26T21:55:55.669Z,66.90
2019-04-26T21:58:26.446Z,66.80
2019-04-26T22:01:04.318Z,67.40
2019-04-26T22:03:34.477Z,67.30
2019-04-26T22:06:05.031Z,68.40
2019-04-26T22:08:36.503Z,68.20
2019-04-26T22:11:06.405Z,67.90
2019-04-26T22:13:46.849Z,67.80
2019-04-26T22:16:33.801Z,68.00
2019-04-26T22:19:07.640Z,68.80
2019-04-26T22:21:43.455Z,69.10
2019-04-26T22:24:20.465Z,68.70
2019-04-26T22:27:03.888Z,68.70
2019-04-26T22:29:34.904Z,69.10
2019-04-26T22:32:04.976Z,68.20
2019-04-26T22:34:37.297Z,68.20
2019-04-26T22:37:11.090Z,66.40
2019-04-26T22:39:39.775Z,66.20
2019-04-26T22:42:09.773Z,66.70
2019-04-26T22:44:41.301Z,67.70
2019-04-26T22:47:28.021Z,67.60
2019-04-26T22:49:58.214Z,67.80
2019-04-26T22:52:28.019Z,68.60
2019-04-26T22:54:57.821Z,68.20
2019-04-26T22:57:27.758Z,69.00
2019-04-26T22:59:57.578Z,68.10
2019-04-26T23:02:27.900Z,66.80
2019-04-26T23:05:00.606Z,68.60
2019-04-26T23:07:33.063Z,67.20
2019-04-26T23:10:04.204Z,67.40
2019-04-26T23:12:45.449Z,68.40
2019-04-26T23:15:35.309Z,68.60
2019-04-26T23:18:18.816Z,68.90
2019-04-26T23:20:56.157Z,71.00
2019-04-26T23:23:40.948Z,69.50
2019-04-26T23:26:10.533Z,69.90
2019-04-26T23:28:40.410Z,69.40
2019-04-26T23:31:10.290Z,69.60
2019-04-26T23:33:40.161Z,69.70
2019-04-26T23:36:10.026Z,69.60
2019-04-26T23:38:39.832Z,69.00
2019-04-26T23:41:09.633Z,68.20
2019-04-26T23:43:40.577Z,69.20
2019-04-26T23:46:10.453Z,68.40
2019-04-26T23:48:42.745Z,67.70
2019-04-26T23:51:11.986Z,68.60
2019-04-26T23:53:42.869Z,68.90
2019-04-26T23:56:16.285Z,69.50
2019-04-26T23:58:45.603Z,69.70
